createdAt,value
2022-09-15T00:01:16.304Z,31.4
2022-09-15T00:06:54.705Z,31.4
2022-09-15T00:12:16.601Z,31.5
2022-09-15T00:17:56.161Z,31.6
2022-09-15T00:23:33.364Z,31.6
2022-09-15T00:29:10.053Z,31.7
2022-09-15T00:34:48.186Z,31.8
2022-09-15T00:40:26.170Z,31.8
2022-09-15T00:46:02.978Z,31.8
2022-09-15T00:52:04.295Z,31.9
2022-09-15T00:57:41.401Z,31.9
2022-09-15T01:03:02.837Z,32
2022-09-15T01:08:25.607Z,32.1
2022-09-15T01:14:02.575Z,32.1
2022-09-15T01:30:39.663Z,32.3
2022-09-15T01:36:15.737Z,32.3
2022-09-15T01:41:53.695Z,32.4
2022-09-15T01:47:15.673Z,32.4
2022-09-15T01:52:52.398Z,32.4
2022-09-15T01:58:29.593Z,32.4
2022-09-15T02:04:07.051Z,32.5
2022-09-15T02:09:28.069Z,32.6
2022-09-15T02:19:41.394Z,32.6
2022-09-15T02:25:18.602Z,32.7
2022-09-15T02:30:56.199Z,32.8
2022-09-15T02:36:37.556Z,32.8
2022-09-15T02:42:14.935Z,32.8
2022-09-15T02:47:53.773Z,32.8
2022-09-15T02:53:30.953Z,32.9
2022-09-15T02:59:08.821Z,32.9
2022-09-15T03:04:49.087Z,32.9
2022-09-15T03:10:10.196Z,33
2022-09-15T03:21:10.555Z,33
2022-09-15T03:26:47.771Z,33.1
2022-09-15T03:32:25.991Z,33.1
2022-09-15T03:38:06.438Z,33.1
2022-09-15T03:43:47.318Z,33.2
2022-09-15T03:49:25.069Z,33.2
2022-09-15T03:55:02.606Z,33.2
2022-09-15T04:00:24.556Z,33.3
2022-09-15T04:06:07.979Z,33.3
2022-09-15T04:11:44.667Z,33.3
2022-09-15T04:17:27.073Z,33.3
2022-09-15T04:23:07.502Z,33.4
2022-09-15T04:28:45.230Z,33.4
2022-09-15T04:34:25.394Z,33.4
2022-09-15T04:40:02.432Z,33.4
2022-09-15T04:45:40.093Z,33.4
2022-09-15T04:51:18.115Z,33.4
2022-09-15T04:56:56.893Z,33.5
2022-09-15T05:02:35.225Z,33.5
2022-09-15T05:08:13.116Z,33.6
2022-09-15T05:13:54.050Z,33.6
2022-09-15T05:19:32.513Z,33.6
2022-09-15T05:25:15.642Z,33.6
2022-09-15T05:36:32.063Z,33.6
2022-09-15T05:42:10.276Z,33.7
2022-09-15T05:47:47.416Z,33.7
2022-09-15T05:53:25.136Z,33.7
2022-09-15T05:59:02.930Z,33.7
2022-09-15T06:04:39.583Z,33.8
2022-09-15T06:10:21.008Z,33.8
2022-09-15T06:15:58.811Z,33.8
2022-09-15T06:21:35.933Z,33.8
2022-09-15T06:27:15.365Z,33.8
2022-09-15T06:32:52.865Z,33.8
2022-09-15T06:38:30.050Z,33.8
2022-09-15T06:44:33.983Z,33.8
2022-09-15T06:50:30.971Z,33.7
2022-09-15T06:56:07.756Z,34.3
2022-09-15T07:01:45.869Z,34.3
2022-09-15T07:07:27.711Z,34.3
2022-09-15T07:13:09.536Z,34.9
2022-09-15T07:18:48.344Z,35.6
2022-09-15T07:24:26.125Z,35.6
2022-09-15T07:30:07.736Z,36.3
2022-09-15T07:35:47.957Z,37.3
2022-09-15T07:41:26.233Z,37.3
2022-09-15T07:47:07.544Z,38.3
2022-09-15T07:52:45.582Z,39.3
2022-09-15T07:58:07.901Z,39.3
2022-09-15T08:03:46.494Z,40.2
2022-09-15T08:09:33.447Z,40.6
2022-09-15T08:15:15.415Z,41
2022-09-15T08:20:37.947Z,42.3
2022-09-15T08:26:00.308Z,42.9
2022-09-15T08:31:22.739Z,43
2022-09-15T08:37:00.052Z,43.9
2022-09-15T08:42:41.650Z,44.9
2022-09-15T08:48:22.428Z,45.8
2022-09-15T08:54:23.219Z,46.8
2022-09-15T09:00:03.501Z,47.6
2022-09-15T09:05:42.234Z,48.4
2022-09-15T09:11:04.291Z,49.3
2022-09-15T09:16:27.735Z,49.9
2022-09-15T09:22:06.823Z,50.8
2022-09-15T09:28:06.682Z,51.6
2022-09-15T09:38:53.137Z,53
2022-09-15T09:44:31.117Z,53.8
2022-09-15T09:50:10.126Z,54.4
2022-09-15T09:55:47.875Z,55.1
2022-09-15T10:01:25.448Z,55.8
2022-09-15T10:07:04.513Z,56.4
2022-09-15T10:12:42.467Z,57.1
2022-09-15T10:18:20.354Z,57.6
2022-09-15T10:23:59.803Z,58.3
2022-09-15T10:34:48.944Z,59.5
2022-09-15T10:40:27.777Z,60.1
2022-09-15T10:46:05.989Z,60.8
2022-09-15T10:51:43.930Z,61.4
2022-09-15T10:57:45.626Z,62
2022-09-15T11:03:24.201Z,62.5
2022-09-15T11:09:03.441Z,62.5
2022-09-15T11:14:47.175Z,62.4
2022-09-15T11:20:25.796Z,62.4
2022-09-15T11:26:03.737Z,62.3
2022-09-15T11:31:42.098Z,62.2
2022-09-15T11:37:20.319Z,62.1
2022-09-15T11:43:02.079Z,61.5
2022-09-15T11:48:40.102Z,62.1
2022-09-15T11:54:17.557Z,62.5
2022-09-15T12:00:00.780Z,63
2022-09-15T12:05:39.357Z,63.4
2022-09-15T12:11:01.695Z,63.8
2022-09-15T12:16:45.051Z,64.2
2022-09-15T12:22:49.411Z,64.5
2022-09-15T12:28:27.125Z,64.8
2022-09-15T12:34:08.145Z,65.1
2022-09-15T12:45:09.190Z,65.6
2022-09-15T12:50:47.219Z,65.8
2022-09-15T12:56:26.383Z,65.8
2022-09-15T13:02:30.062Z,65.6
2022-09-15T13:08:13.740Z,65.8
2022-09-15T13:13:52.056Z,65.8
2022-09-15T13:19:30.324Z,65.8
2022-09-15T13:25:07.982Z,65.5
2022-09-15T13:30:49.480Z,65.5
2022-09-15T13:39:17.210Z,65.4
2022-09-15T13:44:59.953Z,65.4
2022-09-15T13:50:37.937Z,65.3
2022-09-15T13:56:15.879Z,65.3
2022-09-15T14:03:39.932Z,65.1
2022-09-15T14:09:23.263Z,65.1
2022-09-15T14:15:00.841Z,64.9
2022-09-15T14:20:44.936Z,64.9
2022-09-15T14:26:27.282Z,64.8
2022-09-15T14:32:08.510Z,64.7
2022-09-15T14:37:54.309Z,64.6
2022-09-15T14:43:35.945Z,64.4
